Terminal Aerodrome Forecast
Issued by NWS

Home | Current Version | Previous Version | Graphics & Text | Print | Product List | Glossary On
Versions: 1 2 3 4 5 6 7 8 9 10 11 12 13 14 15 16 17 18 19 20 21 22 23 24 25 26 27 28 29 30 31
000
FTUS43 KLOT 192336
TAFMDW
TAF
KMDW 192336Z 2000/2024 08008KT P6SM BKN250
     FM200200 08006KT P6SM FEW040 BKN120
     FM201400 06010KT P6SM BKN080 PROB30 2020/2024 -SHRA BKN060=

USA.gov is the U.S. government's official web portal to all federal, state and local government web resources and services.